createdAt,value
2018-11-12T00:01:37.428Z,99.90
2018-11-12T00:06:41.842Z,99.90
2018-11-12T00:11:46.277Z,99.90
2018-11-12T00:16:50.693Z,99.90
2018-11-12T00:21:55.179Z,99.90
2018-11-12T00:26:59.615Z,99.90
2018-11-12T00:32:04.072Z,99.90
2018-11-12T00:37:08.528Z,99.90
2018-11-12T00:42:12.948Z,99.90
2018-11-12T00:47:17.360Z,99.90
2018-11-12T00:52:21.773Z,99.90
2018-11-12T00:57:26.238Z,99.90
2018-11-12T01:02:30.662Z,99.90
2018-11-12T01:07:35.082Z,99.90
2018-11-12T01:12:39.541Z,99.90
2018-11-12T01:17:44.264Z,99.90
2018-11-12T01:22:48.813Z,99.90
2018-11-12T01:27:53.280Z,99.90
2018-11-12T01:32:57.732Z,99.90
2018-11-12T01:38:02.224Z,99.90
2018-11-12T01:43:06.663Z,99.90
2018-11-12T01:48:11.073Z,99.90
2018-11-12T01:53:15.489Z,99.90
2018-11-12T01:58:19.916Z,99.90
2018-11-12T02:03:24.329Z,99.90
2018-11-12T02:08:28.844Z,99.90
2018-11-12T02:13:33.270Z,99.90
2018-11-12T02:18:37.761Z,99.90
2018-11-12T02:23:43.188Z,99.90
2018-11-12T02:28:47.655Z,99.90
2018-11-12T02:33:52.104Z,99.90
2018-11-12T02:38:56.560Z,99.90
2018-11-12T02:44:00.984Z,99.90
2018-11-12T02:49:05.446Z,99.90
2018-11-12T02:54:09.896Z,99.90
2018-11-12T02:59:14.304Z,99.90
2018-11-12T03:04:18.731Z,99.90
2018-11-12T03:09:23.152Z,99.90
2018-11-12T03:14:27.571Z,99.90
2018-11-12T03:19:32.025Z,99.90
2018-11-12T03:24:36.456Z,99.90
2018-11-12T03:29:40.928Z,99.90
2018-11-12T03:34:45.352Z,99.90
2018-11-12T03:39:49.864Z,99.90
2018-11-12T03:44:54.448Z,99.90
2018-11-12T03:49:58.869Z,99.90
2018-11-12T03:55:03.369Z,99.90
2018-11-12T04:00:21.386Z,99.90
2018-11-12T04:05:26.031Z,99.90
2018-11-12T04:10:30.463Z,99.90
2018-11-12T04:15:35.212Z,99.90
2018-11-12T04:20:39.644Z,99.90
2018-11-12T04:25:44.063Z,99.90
2018-11-12T04:30:48.523Z,99.90
2018-11-12T04:35:52.948Z,99.90
2018-11-12T04:40:57.476Z,99.90
2018-11-12T04:46:01.889Z,99.90
2018-11-12T04:51:06.478Z,99.90
2018-11-12T04:56:10.973Z,99.90
2018-11-12T05:01:15.404Z,99.90
2018-11-12T05:06:19.824Z,99.90
2018-11-12T05:11:24.254Z,99.90
2018-11-12T05:16:28.693Z,99.90
2018-11-12T05:21:33.177Z,99.90
2018-11-12T05:26:37.591Z,99.90
2018-11-12T05:31:42.140Z,99.90
2018-11-12T05:36:46.598Z,99.90
2018-11-12T05:41:52.036Z,99.90
2018-11-12T05:46:56.448Z,99.90
2018-11-12T05:52:02.181Z,99.90
2018-11-12T05:57:06.636Z,99.90
2018-11-12T06:02:11.057Z,99.90
2018-11-12T06:07:15.789Z,99.90
2018-11-12T06:12:20.276Z,99.90
2018-11-12T06:17:24.866Z,99.90
2018-11-12T06:22:29.293Z,99.90
2018-11-12T06:27:33.796Z,99.90
2018-11-12T06:32:38.352Z,99.90
2018-11-12T06:37:43.322Z,99.90
2018-11-12T06:42:47.876Z,99.90
2018-11-12T06:47:53.016Z,99.90
2018-11-12T06:52:57.648Z,99.90
2018-11-12T06:58:02.008Z,99.90
2018-11-12T07:03:06.476Z,99.90
2018-11-12T07:08:10.897Z,99.90
2018-11-12T07:13:15.353Z,99.90
2018-11-12T07:18:19.801Z,99.90
2018-11-12T07:23:24.268Z,99.90
2018-11-12T07:28:28.784Z,99.90
2018-11-12T07:33:33.209Z,99.90
2018-11-12T07:38:37.679Z,99.90
2018-11-12T07:43:42.153Z,99.90
2018-11-12T07:48:46.606Z,99.90
2018-11-12T07:53:51.052Z,99.90
2018-11-12T07:58:55.504Z,99.90
2018-11-12T08:03:59.932Z,99.90
2018-11-12T08:09:05.317Z,99.90
2018-11-12T08:14:09.685Z,99.90
2018-11-12T08:19:14.120Z,99.90
2018-11-12T08:24:18.684Z,99.90
2018-11-12T08:29:23.078Z,99.90
2018-11-12T08:34:27.557Z,99.90
2018-11-12T08:39:32.138Z,99.90
2018-11-12T08:44:36.504Z,99.90
2018-11-12T08:49:41.111Z,99.90
2018-11-12T08:54:45.916Z,99.90
2018-11-12T08:59:50.484Z,99.90
2018-11-12T09:04:54.885Z,99.90
2018-11-12T09:09:59.435Z,99.90
2018-11-12T09:15:03.951Z,99.90
2018-11-12T09:20:10.101Z,99.90
2018-11-12T09:25:16.918Z,99.90
2018-11-12T09:30:23.554Z,99.90
2018-11-12T09:35:29.169Z,99.90
2018-11-12T09:40:37.667Z,99.90
2018-11-12T09:45:42.132Z,99.90
2018-11-12T09:50:46.548Z,99.90
2018-11-12T09:55:50.956Z,99.90
2018-11-12T10:00:55.832Z,99.90
2018-11-12T10:06:02.154Z,99.90
2018-11-12T10:11:08.873Z,99.90
2018-11-12T10:16:13.906Z,99.90
2018-11-12T10:21:15.332Z,99.90
2018-11-12T10:26:19.785Z,99.90
2018-11-12T10:31:24.202Z,99.90
2018-11-12T10:36:28.617Z,99.90
2018-11-12T10:41:33.037Z,99.80
2018-11-12T10:46:37.458Z,99.90
2018-11-12T10:51:41.864Z,99.40
2018-11-12T10:56:46.289Z,99.40
2018-11-12T11:01:53.767Z,99.50
2018-11-12T11:06:58.257Z,99.90
2018-11-12T11:12:02.664Z,99.30
2018-11-12T11:17:07.099Z,98.80
2018-11-12T11:22:11.521Z,99.00
2018-11-12T11:27:15.946Z,99.20
2018-11-12T11:42:00.857Z,99.40
2018-11-12T11:47:06.689Z,99.00
2018-11-12T11:52:11.088Z,99.90
2018-11-12T11:57:15.532Z,99.90
2018-11-12T12:02:20.038Z,99.90
2018-11-12T12:07:24.445Z,99.90
2018-11-12T12:12:28.873Z,99.90
2018-11-12T12:17:33.353Z,99.90
2018-11-12T12:22:38.812Z,99.90
2018-11-12T12:27:43.711Z,99.90
2018-11-12T12:32:49.483Z,99.90
2018-11-12T12:37:54.260Z,99.80
2018-11-12T12:42:58.757Z,99.90
2018-11-12T12:48:03.201Z,99.10
2018-11-12T12:53:07.669Z,98.80
2018-11-12T12:58:12.215Z,99.00
2018-11-12T13:03:16.646Z,98.80
2018-11-12T13:08:21.049Z,99.10
2018-11-12T13:13:25.473Z,99.20
2018-11-12T13:18:29.896Z,98.10
2018-11-12T13:23:34.317Z,98.70
2018-11-12T13:28:38.777Z,98.80
2018-11-12T13:33:43.216Z,98.90
2018-11-12T13:38:47.616Z,99.30
2018-11-12T13:43:52.045Z,98.70
2018-11-12T13:48:56.568Z,98.30
2018-11-12T13:54:00.992Z,99.20
2018-11-12T13:59:05.798Z,99.30
2018-11-12T14:04:10.236Z,99.90
2018-11-12T14:09:14.648Z,99.80
2018-11-12T14:14:19.145Z,99.90
2018-11-12T14:19:23.572Z,99.90
2018-11-12T14:24:27.976Z,99.90
2018-11-12T14:29:32.423Z,99.90
2018-11-12T14:34:36.985Z,99.90
2018-11-12T14:39:41.733Z,99.90
2018-11-12T14:44:46.084Z,99.90
2018-11-12T14:49:50.538Z,99.90
2018-11-12T14:54:55.133Z,99.90
2018-11-12T14:59:59.804Z,99.90
2018-11-12T15:05:04.292Z,99.90
2018-11-12T15:10:10.476Z,99.90
2018-11-12T15:15:15.175Z,99.90
2018-11-12T15:20:20.548Z,99.90
2018-11-12T15:25:26.088Z,99.90
2018-11-12T15:30:30.510Z,99.90
2018-11-12T15:35:35.008Z,99.90
2018-11-12T15:40:39.417Z,99.90
2018-11-12T15:45:46.470Z,99.90
2018-11-12T15:50:49.440Z,99.90
2018-11-12T15:55:53.839Z,99.90
2018-11-12T16:00:58.269Z,99.90
2018-11-12T16:06:02.745Z,99.90
2018-11-12T16:11:07.161Z,99.90
2018-11-12T16:16:11.657Z,99.90
2018-11-12T16:21:16.173Z,99.90
2018-11-12T16:26:20.645Z,99.90
2018-11-12T16:31:25.288Z,99.90
2018-11-12T16:36:29.821Z,99.90
2018-11-12T16:41:41.377Z,99.90
2018-11-12T16:46:46.571Z,99.90
2018-11-12T16:51:51.089Z,99.90
2018-11-12T16:56:55.694Z,99.90
2018-11-12T17:02:00.208Z,99.90
2018-11-12T17:07:04.753Z,99.90
2018-11-12T17:12:09.397Z,99.90
2018-11-12T17:17:14.009Z,99.90
2018-11-12T17:22:18.563Z,99.90
2018-11-12T17:27:23.084Z,99.90
2018-11-12T17:32:27.620Z,99.90
2018-11-12T17:37:32.117Z,99.90
2018-11-12T17:42:36.601Z,99.90
2018-11-12T17:47:41.112Z,99.90
2018-11-12T17:52:45.551Z,99.90
2018-11-12T17:57:50.117Z,99.90
2018-11-12T18:02:54.680Z,99.90
2018-11-12T18:07:59.198Z,99.90
2018-11-12T18:13:03.728Z,99.90
2018-11-12T18:18:08.273Z,99.90
2018-11-12T18:23:12.737Z,99.90
2018-11-12T18:28:17.193Z,99.90
2018-11-12T18:33:21.646Z,99.90
2018-11-12T18:38:26.077Z,99.90
2018-11-12T18:43:30.517Z,99.90
2018-11-12T18:48:34.966Z,99.90
2018-11-12T18:53:39.396Z,99.90
2018-11-12T18:58:43.836Z,99.90
2018-11-12T19:03:48.352Z,99.90
2018-11-12T19:08:52.826Z,99.90
2018-11-12T19:13:57.352Z,99.90
2018-11-12T19:19:01.954Z,99.90
2018-11-12T19:24:06.488Z,99.90
2018-11-12T19:29:10.940Z,99.90
2018-11-12T19:34:15.379Z,99.90
2018-11-12T19:39:21.045Z,99.90
2018-11-12T19:44:25.485Z,99.90
2018-11-12T19:49:29.900Z,99.90
2018-11-12T19:54:34.380Z,99.90
2018-11-12T19:59:38.792Z,99.90
2018-11-12T20:04:43.212Z,99.90
2018-11-12T20:09:47.616Z,99.90
2018-11-12T20:14:52.034Z,99.90
2018-11-12T20:19:56.484Z,99.90
2018-11-12T20:25:00.939Z,99.90
2018-11-12T20:30:07.109Z,99.90
2018-11-12T20:35:11.564Z,99.90
2018-11-12T20:40:16.664Z,99.90
2018-11-12T20:45:22.413Z,99.90
2018-11-12T20:50:26.957Z,99.90
2018-11-12T20:55:31.487Z,99.90
2018-11-12T21:00:35.920Z,99.90
2018-11-12T21:05:40.442Z,99.90
2018-11-12T21:10:44.904Z,99.90
2018-11-12T21:15:49.441Z,99.90
2018-11-12T21:20:54.920Z,99.90
2018-11-12T21:25:59.346Z,99.90
2018-11-12T21:31:03.812Z,99.90
2018-11-12T21:36:08.276Z,99.90
2018-11-12T21:41:12.760Z,99.90
2018-11-12T21:46:17.288Z,99.90
2018-11-12T21:51:21.833Z,99.90
2018-11-12T21:56:26.360Z,99.90
2018-11-12T22:01:31.603Z,99.90
2018-11-12T22:06:37.060Z,99.90
2018-11-12T22:11:41.581Z,99.90
2018-11-12T22:16:45.997Z,99.90
2018-11-12T22:31:27.115Z,99.90
2018-11-12T22:36:31.521Z,99.90
2018-11-12T22:41:35.933Z,99.90
2018-11-12T22:46:40.377Z,99.90
2018-11-12T22:51:44.809Z,99.90
2018-11-12T22:56:49.219Z,99.90
2018-11-12T23:01:53.664Z,99.90
2018-11-12T23:06:58.069Z,99.90
2018-11-12T23:12:02.492Z,99.90
2018-11-12T23:17:07.233Z,99.90
2018-11-12T23:22:11.753Z,99.90
2018-11-12T23:27:16.171Z,99.90
2018-11-12T23:32:20.649Z,99.90
2018-11-12T23:37:25.053Z,99.90
2018-11-12T23:42:29.464Z,99.90
2018-11-12T23:47:33.964Z,99.90
2018-11-12T23:52:38.604Z,99.90
2018-11-12T23:57:43.349Z,99.90
